Terminal Aerodrome Forecast
Issued by NWS

Home | Current Version | Previous Version | Text Only | Print | Product List | Glossary On
Versions: 1 2 3 4 5 6 7 8 9 10 11 12 13 14 15 16 17 18 19 20 21
000
FTUS43 KGRB 240534
TAFRHI
TAF
KRHI 240534Z 2406/2506 04006KT P6SM VCSH OVC035
      TEMPO 2407/2411 -RA BKN018
     FM241100 03007KT P6SM VCSH SCT008 OVC015
     FM241500 06009KT P6SM OVC012
     FM241700 06009KT P6SM OVC022
     FM242200 06005KT P6SM SCT025 BKN040=

USA.gov is the U.S. government's official web portal to all federal, state and local government web resources and services.